Flight Track Log - Related Links

Times and Time Zones

All times are in EDT time to prevent confusion due to time zone crossing. See the AIE881 flight status page for this flight to view local times or setup timezone preferences in your user account.

Time Position Orientation Groundspeed Altitude Reporting Facility
EDT Latitude Longitude Course Direction KTS MPH feet Rate Location/Type
Fri 03:08:00 PM 57.8603 -78.0150 178° South  Level FlightAware Approximate
Fri 03:09:00 PM 57.7928 -78.0102 178° South  Level FlightAware Approximate
Fri 03:10:00 PM 57.7254 -78.0054 178° South  Level FlightAware Approximate
Fri 03:11:00 PM 57.6580 -78.0006 178° South  Level FlightAware Approximate
Fri 03:12:00 PM 57.5906 -77.9954 178° South  Level FlightAware Approximate
Fri 03:13:00 PM 57.5232 -77.9902 178° South  Level FlightAware Approximate
Fri 03:13:51 PM 45.8333 -73.1833 177° South 60 69 1,000  Level Montreal Center
Fri 03:14:00 PM 57.4558 -77.9850 178° South  Level FlightAware Approximate
Fri 03:15:00 PM 57.3883 -77.9803 178° South  Level FlightAware Approximate
Fri 03:15:00 PM 45.9067 -73.2194 341° North  Level Estimated
Fri 03:16:00 PM 57.3209 -77.9758 178° South  Level FlightAware Approximate
Fri 03:17:00 PM 57.2535 -77.9713 178° South  Level FlightAware Approximate
Fri 03:18:00 PM 57.1861 -77.9669 178° South  Level FlightAware Approximate
Fri 03:19:00 PM 57.1187 -77.9602 177° South  Level FlightAware Approximate
Fri 03:22:00 PM 46.3534 -73.4408 341° North  Level Estimated
Fri 03:23:00 PM 46.4172 -73.4727 341° North  Level Estimated
Fri 03:24:00 PM 46.4809 -73.5047 341° North  Level Estimated
Fri 03:25:00 PM 46.5447 -73.5368 341° North  Level Estimated
Fri 03:26:00 PM 46.6085 -73.5689 341° North  Level Estimated
Fri 03:27:00 PM 46.6722 -73.6012 341° North  Level Estimated
Fri 03:27:59 PM 56.7500 -77.8667 341° North 250 288 24,000  Level Montreal Center
Fri 03:28:00 PM 46.7359 -73.6335 341° North  Level Estimated
Fri 03:28:59 PM 56.6833 -77.8667 180° South 250 288 24,000  Level Montreal Center
Fri 03:29:00 PM 46.7996 -73.6658 341° North  Level Estimated
Fri 03:29:59 PM 56.6000 -77.8500 174° South 260 299 24,000  Level Montreal Center
Fri 03:30:00 PM 46.8634 -73.6983 341° North  Level Estimated
Fri 03:30:59 PM 56.5167 -77.8500 180° South 260 299 24,000  Level Montreal Center
Fri 03:31:00 PM 46.9271 -73.7308 341° North  Level Estimated
Fri 03:31:59 PM 56.4500 -77.8500 180° South 260 299 24,000  Level Montreal Center
Fri 03:32:00 PM 46.9907 -73.7634 341° North  Level Estimated
Fri 03:32:59 PM 56.3833 -77.8500 180° South 260 299 24,000  Level Montreal Center
Fri 03:33:00 PM 47.0544 -73.7961 341° North  Level Estimated
Fri 03:33:59 PM 56.3167 -77.8500 180° South 260 299 24,000  Level Montreal Center
Fri 03:34:59 PM 56.2333 -77.8333 174° South 250 288 24,000  Level Montreal Center
Fri 03:35:59 PM 56.1667 -77.8333 180° South 250 288 24,000  Level Montreal Center
Fri 03:36:59 PM 56.1000 -77.8333 180° South 250 288 24,000  Level Montreal Center
Fri 03:37:59 PM 56.0333 -77.8333 180° South 240 276 24,000  Level Montreal Center
Fri 03:38:59 PM 55.9667 -77.8333 180° South 250 288 24,000  Level Montreal Center
Fri 03:39:59 PM 55.8833 -77.8167 174° South 250 288 24,000  Level Montreal Center
Fri 03:40:59 PM 55.8167 -77.8167 180° South 250 288 24,000  Level Montreal Center
Fri 03:41:59 PM 55.7500 -77.8167 180° South 250 288 24,000  Level Montreal Center
Fri 03:42:59 PM 55.6833 -77.8167 180° South 250 288 24,000  Level Montreal Center
Fri 03:43:59 PM 55.6167 -77.8167 180° South 250 288 24,000  Level Montreal Center
Fri 03:44:59 PM 55.5500 -77.8000 172° South 250 288 24,000  Level Montreal Center
Fri 03:45:59 PM 55.4833 -77.8000 180° South 250 288 24,000  Level Montreal Center
Fri 03:46:59 PM 55.4167 -77.8000 180° South 250 288 24,000  Level Montreal Center
Fri 03:47:59 PM 55.3500 -77.8000 180° South 250 288 24,000  Level Montreal Center
Fri 03:48:59 PM 55.2833 -77.8000 180° South 250 288 24,000  Level Montreal Center
Fri 03:49:59 PM 55.2000 -77.7833 173° South 250 288 24,000  Level Montreal Center
Fri 03:50:59 PM 55.1333 -77.7833 180° South 250 288 24,000  Level Montreal Center
Fri 03:51:59 PM 55.0667 -77.7833 180° South 250 288 24,000  Level Montreal Center
Fri 03:52:59 PM 55.0000 -77.7833 180° South 250 288 24,000  Level Montreal Center
Fri 03:53:59 PM 54.9333 -77.7833 180° South 250 288 24,000  Level Montreal Center
Fri 03:54:59 PM 54.8500 -77.7833 180° South 250 288 24,000  Level Montreal Center
Fri 03:55:59 PM 54.7667 -77.7667 173° South 250 288 24,000 -300 Level Montreal Center
Fri 03:56:59 PM 54.7000 -77.7667 180° South 250 288 23,400 -1,200 Descending Montreal Center
Fri 03:57:59 PM 54.6167 -77.7667 180° South 280 322 21,600 -1,850 Descending Montreal Center
Fri 03:58:59 PM 54.5333 -77.7667 180° South 310 357 19,700 -1,900 Descending Montreal Center
Fri 03:59:59 PM 54.4500 -77.7667 180° South 320 368 17,800 -1,900 Descending Montreal Center
Fri 04:00:59 PM 54.3667 -77.7500 173° South 310 357 15,900 -1,850 Descending Montreal Center
Fri 04:01:59 PM 54.2833 -77.7500 180° South 310 357 14,100 -1,850 Descending Montreal Center
Fri 04:02:59 PM 54.1833 -77.7500 180° South 300 345 12,200 -1,800 Descending Montreal Center
Fri 04:03:59 PM 54.1000 -77.7500 180° South 290 334 10,500 -1,700 Descending Montreal Center
Fri 04:04:59 PM 54.0333 -77.7333 172° South 280 322 8,800 -1,600 Descending Montreal Center
Fri 04:05:59 PM 53.9500 -77.7333 180° South 270 311 7,300 -1,550 Descending Montreal Center
Fri 04:06:59 PM 53.8833 -77.7333 180° South 250 288 5,700 -1,550 Descending Montreal Center
Fri 04:07:59 PM 53.8167 -77.7333 180° South 240 276 4,200 -1,300 Descending Montreal Center
Fri 04:08:59 PM 53.7667 -77.7333 180° South 220 253 3,100 -900 Descending Montreal Center
Fri 04:09:59 PM 53.7167 -77.7500 191° South 170 196 2,400 -550 Descending Montreal Center
Fri 04:10:59 PM 53.6833 -77.7500 180° South 140 161 2,000 -300 Descending Montreal Center
Fri 04:11:59 PM 53.6500 -77.7833 211° Southwest 130 150 1,800 -200 Descending Montreal Center

Login

Don't have an account? Register now (free) for customized features, flight alerts, and more!